Time;durP1;ratioP1;P1;durP2;ratioP2;P2;SDS_P1;SDS_P2;PMS_P1;PMS_P2;Temp;Humidity;BMP_temperature;BMP_pressure;BME280_temperature;BME280_humidity;BME280_pressure;Samples;Min_cycle;Max_cycle;Signal;HPM_P1;HPM_P2
2022/07/13 00:02:14;;;;;;;26.95;16.88;;;;;;;19.59;81.71;102009.25;5052072;28;20082;-44
2022/07/13 00:04:40;;;;;;;30.35;18.58;;;;;;;19.65;81.02;102008.41;5053002;28;20136;-45
2022/07/13 00:07:05;;;;;;;34.65;17.45;;;;;;;19.65;81.67;102013.66;5052767;28;20025;-47
2022/07/13 00:09:30;;;;;;;30.95;17.65;;;;;;;19.68;79.88;102001.47;5051865;28;20032;-47
2022/07/13 00:11:55;;;;;;;28.35;17.52;;;;;;;19.76;79.34;101998.06;5052999;28;20021;-46
2022/07/13 00:14:21;;;;;;;27.10;17.15;;;;;;;19.72;80.96;101981.47;5052825;28;20020;-47
2022/07/13 00:16:46;;;;;;;34.58;20.77;;;;;;;19.79;77.33;101974.56;5051939;28;20021;-46
2022/07/13 00:19:11;;;;;;;27.27;16.60;;;;;;;19.74;79.05;101972.78;5052429;28;20032;-48
2022/07/13 00:21:36;;;;;;;40.72;17.80;;;;;;;19.68;80.19;101979.69;5052793;28;20032;-47
2022/07/13 00:24:02;;;;;;;29.10;17.73;;;;;;;19.67;79.91;101975.31;5052052;28;20032;-46
2022/07/13 00:26:27;;;;;;;29.95;17.98;;;;;;;19.62;79.44;101975.25;5052766;28;20090;-48
2022/07/13 00:28:53;;;;;;;28.45;17.15;;;;;;;19.56;80.05;101969.97;5052566;28;20025;-46
2022/07/13 00:31:19;;;;;;;32.40;19.33;;;;;;;19.49;79.68;101971.66;5051672;28;20025;-47
2022/07/13 00:33:44;;;;;;;33.25;19.25;;;;;;;19.42;80.49;101970.69;5052815;28;20232;-45
2022/07/13 00:36:09;;;;;;;28.15;17.77;;;;;;;19.41;80.45;101947.16;5051751;28;20354;-48
2022/07/13 00:38:35;;;;;;;30.30;18.75;;;;;;;19.42;80.60;101947.19;5052293;28;20492;-48
2022/07/13 00:41:00;;;;;;;29.65;16.92;;;;;;;19.42;80.91;101949.78;5052435;28;20086;-48
2022/07/13 00:43:26;;;;;;;28.23;18.67;;;;;;;19.40;80.78;101956.72;5051764;28;20029;-46
2022/07/13 00:45:52;;;;;;;28.80;17.83;;;;;;;19.42;81.58;101943.69;5052238;28;20037;-46
2022/07/13 00:48:17;;;;;;;27.88;17.73;;;;;;;19.37;81.94;101941.03;5052533;28;20025;-47
2022/07/13 00:50:42;;;;;;;30.10;18.35;;;;;;;19.31;80.91;101940.94;5051541;28;20477;-48
2022/07/13 00:53:09;;;;;;;29.45;18.60;;;;;;;19.28;81.77;101942.69;5052064;28;20028;-45
2022/07/13 00:55:34;;;;;;;28.92;17.80;;;;;;;19.28;81.45;101925.25;5052419;28;20417;-46
2022/07/13 00:57:59;;;;;;;28.50;17.55;;;;;;;19.27;81.01;101928.72;5051537;28;20243;-46
2022/07/13 01:00:25;;;;;;;29.35;17.65;;;;;;;19.28;81.19;101935.69;5052053;28;20048;-48
2022/07/13 01:02:50;;;;;;;28.60;18.30;;;;;;;19.28;81.71;101932.22;5052579;28;20501;-45
2022/07/13 01:05:16;;;;;;;29.95;17.35;;;;;;;19.27;81.76;101923.50;5051697;28;20372;-45
2022/07/13 01:07:41;;;;;;;27.75;17.48;;;;;;;19.27;81.96;101923.50;5052523;28;20029;-46
2022/07/13 01:10:09;;;;;;;27.70;17.95;;;;;;;19.30;80.79;101923.53;5052264;28;20387;-47
2022/07/13 01:12:36;;;;;;;32.10;19.73;;;;;;;19.33;80.76;101918.34;5051556;28;20381;-44
2022/07/13 01:15:03;;;;;;;28.38;17.48;;;;;;;19.34;80.92;101914.88;5052237;28;20021;-44
2022/07/13 01:17:31;;;;;;;33.50;17.77;;;;;;;19.38;81.15;101914.03;5052496;28;20031;-44
2022/07/13 01:19:57;;;;;;;29.35;17.55;;;;;;;19.41;80.94;101911.44;5051332;28;20029;-45
2022/07/13 01:22:26;;;;;;;29.67;16.83;;;;;;;19.42;81.18;101913.19;5055047;28;20025;-46
2022/07/13 01:24:54;;;;;;;28.17;17.58;;;;;;;19.40;81.14;101914.91;5056266;28;20036;-48
2022/07/13 01:27:20;;;;;;;27.23;16.65;;;;;;;19.39;80.71;101917.50;5055559;28;20044;-47
2022/07/13 01:29:45;;;;;;;26.98;16.15;;;;;;;19.33;82.36;101918.34;5055982;28;20017;-45
2022/07/13 01:32:11;;;;;;;27.45;16.58;;;;;;;19.26;81.97;101919.13;5056073;28;20056;-47
2022/07/13 01:34:36;;;;;;;27.05;17.85;;;;;;;19.27;82.34;101920.00;5055219;28;20060;-48
2022/07/13 01:37:02;;;;;;;30.05;17.50;;;;;;;19.25;81.70;101914.78;5055867;28;20039;-45
2022/07/13 01:39:27;;;;;;;27.92;16.98;;;;;;;19.27;81.99;101914.78;5054834;28;20053;-44
2022/07/13 01:41:53;;;;;;;28.83;17.48;;;;;;;19.27;82.26;101913.03;5055610;28;20028;-45
2022/07/13 01:44:18;;;;;;;29.80;17.98;;;;;;;19.24;80.94;101907.78;5055460;28;20029;-47
2022/07/13 01:46:43;;;;;;;32.13;18.20;;;;;;;19.26;80.84;101903.44;5055179;28;20031;-47
2022/07/13 01:49:09;;;;;;;29.92;17.98;;;;;;;19.31;81.18;101899.13;5055572;28;20060;-46
2022/07/13 01:51:34;;;;;;;28.13;17.15;;;;;;;19.36;81.66;101896.56;5055442;28;20031;-48
2022/07/13 01:53:59;;;;;;;28.55;17.27;;;;;;;19.37;80.58;101899.19;5054737;28;20468;-49
2022/07/13 01:56:25;;;;;;;27.48;17.13;;;;;;;19.41;80.90;101903.59;5055271;28;20025;-46
2022/07/13 01:58:51;;;;;;;25.55;16.77;;;;;;;19.37;80.55;101904.44;5055178;28;20392;-43
2022/07/13 02:01:16;;;;;;;25.77;15.57;;;;;;;19.33;81.81;101907.00;5054556;28;20539;-47
2022/07/13 02:03:41;;;;;;;30.52;18.63;;;;;;;19.28;80.99;101912.19;5055278;28;20040;-46
2022/07/13 02:06:06;;;;;;;26.88;16.63;;;;;;;19.28;80.76;101899.13;5055168;28;20507;-47
2022/07/13 02:08:32;;;;;;;25.02;15.27;;;;;;;19.29;81.11;101895.66;5054615;28;20029;-46
2022/07/13 02:10:58;;;;;;;28.20;15.93;;;;;;;19.34;80.49;101893.06;5055065;28;20066;-47
2022/07/13 02:13:23;;;;;;;25.17;15.10;;;;;;;19.34;81.93;101896.56;5055053;28;20358;-48
2022/07/13 02:15:48;;;;;;;28.05;15.10;;;;;;;19.30;80.98;101889.56;5054172;28;20464;-47
2022/07/13 02:18:14;;;;;;;24.30;15.25;;;;;;;19.29;81.35;101886.91;5055030;28;20033;-47
2022/07/13 02:20:39;;;;;;;29.10;15.60;;;;;;;19.31;80.88;101880.84;5055005;28;20107;-48
2022/07/13 02:23:05;;;;;;;27.08;14.25;;;;;;;19.30;81.49;101881.72;5054010;28;20029;-47
2022/07/13 02:25:34;;;;;;;23.55;14.27;;;;;;;19.29;80.74;101881.69;5054852;28;20033;-48
2022/07/13 02:27:59;;;;;;;25.70;15.30;;;;;;;19.28;81.88;101888.66;5054647;28;20108;-49
2022/07/13 02:30:25;;;;;;;24.30;14.23;;;;;;;19.25;82.78;101881.66;5054069;28;20082;-47
2022/07/13 02:32:50;;;;;;;37.58;15.65;;;;;;;19.22;82.93;101883.38;5054427;28;20025;-48
2022/07/13 02:35:15;;;;;;;18.23;10.95;;;;;;;19.28;75.93;101872.97;5054577;28;20123;-47
2022/07/13 02:37:41;;;;;;;23.35;13.13;;;;;;;19.31;78.01;101866.91;5053724;28;20029;-49
2022/07/13 02:40:09;;;;;;;22.77;13.57;;;;;;;19.33;78.86;101862.56;5054295;28;20040;-48
2022/07/13 02:42:34;;;;;;;20.17;12.40;;;;;;;19.34;78.03;101861.69;5054543;28;20033;-48
2022/07/13 02:45:00;;;;;;;18.52;11.70;;;;;;;19.35;75.22;101853.00;5053817;28;20112;-47
2022/07/13 02:47:25;;;;;;;20.83;11.57;;;;;;;19.45;72.83;101848.75;5054661;28;20021;-44
2022/07/13 02:49:50;;;;;;;16.17;10.60;;;;;;;19.49;73.54;101843.53;5053530;28;20025;-46
2022/07/13 02:52:16;;;;;;;17.52;8.48;;;;;;;19.60;69.35;101841.03;5054437;28;20023;-46
2022/07/13 02:54:42;;;;;;;14.98;8.75;;;;;;;19.73;67.85;101852.47;5054406;28;20021;-45
2022/07/13 02:57:07;;;;;;;14.63;7.60;;;;;;;19.88;65.64;101851.72;5053229;28;20021;-46
2022/07/13 02:59:35;;;;;;;12.07;7.75;;;;;;;20.00;64.90;101856.13;5054078;28;20440;-45
2022/07/13 03:02:00;;;;;;;13.40;7.53;;;;;;;20.10;64.50;101859.69;5054309;28;20025;-43
2022/07/13 03:04:26;;;;;;;14.75;7.35;;;;;;;20.18;63.76;101856.28;5053317;28;20036;-44
2022/07/13 03:06:52;;;;;;;15.77;7.38;;;;;;;20.23;64.67;101856.28;5054002;28;20100;-48
2022/07/13 03:09:17;;;;;;;14.45;7.65;;;;;;;20.23;66.18;101862.41;5053947;28;20031;-44
2022/07/13 03:11:42;;;;;;;11.70;6.90;;;;;;;20.24;64.72;101858.03;5053303;28;20051;-45
2022/07/13 03:14:08;;;;;;;16.33;7.00;;;;;;;20.31;62.87;101861.56;5053895;28;20029;-47
2022/07/13 03:16:34;;;;;;;15.40;6.90;;;;;;;20.36;62.99;101858.13;5054068;28;20025;-47
2022/07/13 03:18:59;;;;;;;14.02;6.68;;;;;;;20.46;61.47;101855.53;5053062;28;20048;-46
2022/07/13 03:21:25;;;;;;;15.15;6.22;;;;;;;20.53;61.65;101849.47;5053686;28;20136;-48
2022/07/13 03:23:50;;;;;;;11.73;6.43;;;;;;;20.52;62.33;101856.44;5053692;28;20491;-47
2022/07/13 03:26:15;;;;;;;10.25;6.55;;;;;;;20.56;61.94;101855.56;5052686;28;20088;-46
2022/07/13 03:28:41;;;;;;;10.23;6.40;;;;;;;20.60;60.51;101846.00;5053595;28;20382;-45
2022/07/13 03:31:06;;;;;;;14.85;6.90;;;;;;;20.61;61.70;101837.28;5053463;28;20488;-45
2022/07/13 03:33:31;;;;;;;12.35;6.13;;;;;;;20.63;61.55;101846.03;5052982;28;20025;-48
2022/07/13 03:35:56;;;;;;;12.02;6.78;;;;;;;20.64;60.80;101839.03;5053566;28;20021;-47
2022/07/13 03:38:22;;;;;;;11.27;6.80;;;;;;;20.69;60.06;101832.06;5053063;28;20052;-47
2022/07/13 03:40:47;;;;;;;14.82;6.32;;;;;;;20.68;61.23;101844.28;5052586;28;20360;-47
2022/07/13 03:43:12;;;;;;;16.42;6.68;;;;;;;20.71;60.40;101849.56;5053117;28;20031;-45
2022/07/13 03:45:38;;;;;;;11.25;6.30;;;;;;;20.66;61.76;101846.03;5052901;28;20027;-46
2022/07/13 03:48:05;;;;;;;13.57;5.95;;;;;;;20.65;60.98;101839.03;5052288;28;20086;-47
2022/07/13 03:50:30;;;;;;;10.02;5.75;;;;;;;20.62;61.34;101838.13;5053366;28;20096;-44
2022/07/13 03:52:56;;;;;;;11.55;6.72;;;;;;;20.69;60.21;101842.53;5053173;28;20655;-45
2022/07/13 03:55:21;;;;;;;13.05;6.50;;;;;;;20.72;59.95;101829.47;5052364;28;20020;-48
2022/07/13 03:57:46;;;;;;;14.48;6.28;;;;;;;20.75;60.11;101833.84;5053315;28;20013;-45
2022/07/13 04:00:12;;;;;;;15.85;6.35;;;;;;;20.79;59.92;101835.63;5052072;28;20029;-44
2022/07/13 04:02:37;;;;;;;13.20;6.13;;;;;;;20.79;60.27;101827.75;5053237;28;20468;-48
2022/07/13 04:05:03;;;;;;;12.30;6.72;;;;;;;20.81;59.89;101840.00;5052911;28;20032;-46
2022/07/13 04:07:28;;;;;;;8.73;5.22;;;;;;;20.78;60.76;101841.72;5052439;28;20020;-44
2022/07/13 04:09:53;;;;;;;9.88;5.80;;;;;;;20.80;60.07;101837.34;5052780;28;20511;-48
2022/07/13 04:12:22;;;;;;;14.45;6.80;;;;;;;20.82;59.58;101840.88;5052735;28;20083;-47
2022/07/13 04:14:48;;;;;;;11.95;5.68;;;;;;;20.81;59.66;101840.00;5052242;28;20075;-48
2022/07/13 04:17:14;;;;;;;11.88;5.90;;;;;;;20.82;59.70;101830.38;5052834;28;20083;-45
2022/07/13 04:19:39;;;;;;;11.85;6.22;;;;;;;20.83;59.42;101822.53;5052912;28;20037;-47
2022/07/13 04:22:04;;;;;;;12.50;6.32;;;;;;;20.87;59.13;101828.66;5051922;28;20353;-49
2022/07/13 04:24:29;;;;;;;12.63;6.28;;;;;;;20.88;58.76;101817.31;5052745;28;20032;-46
2022/07/13 04:26:55;;;;;;;10.18;6.10;;;;;;;20.90;58.85;101815.53;5052901;28;20033;-46
2022/07/13 04:29:20;;;;;;;12.40;6.50;;;;;;;20.96;58.05;101819.94;5051865;28;20032;-45
2022/07/13 04:31:45;;;;;;;18.00;6.03;;;;;;;20.99;57.96;101817.31;5052521;28;20422;-44
2022/07/13 04:34:10;;;;;;;10.48;5.95;;;;;;;21.02;58.23;101814.72;5052519;28;20477;-46
2022/07/13 04:36:36;;;;;;;11.65;6.38;;;;;;;21.04;58.28;101810.34;5052134;28;20021;-45
2022/07/13 04:39:01;;;;;;;10.95;6.47;;;;;;;21.07;57.93;101812.09;5052161;28;20123;-46
2022/07/13 04:41:26;;;;;;;14.18;6.45;;;;;;;21.11;57.71;101811.22;5052445;28;20464;-46
2022/07/13 04:43:52;;;;;;;12.18;6.15;;;;;;;21.14;58.04;101814.72;5051960;28;20044;-46
2022/07/13 04:46:17;;;;;;;12.88;6.35;;;;;;;21.17;58.24;101813.84;5052443;28;20077;-43
2022/07/13 04:48:43;;;;;;;12.40;6.28;;;;;;;21.20;57.99;101811.22;5052727;28;20025;-44
2022/07/13 04:51:08;;;;;;;18.25;5.80;;;;;;;21.22;58.12;101820.81;5051323;28;20025;-45
2022/07/13 04:53:33;;;;;;;13.60;5.68;;;;;;;21.24;57.92;101820.84;5052450;28;20021;-44
2022/07/13 04:55:59;;;;;;;11.73;6.28;;;;;;;21.25;57.94;101813.84;5055126;28;20032;-43
2022/07/13 04:58:24;;;;;;;14.98;6.45;;;;;;;21.24;58.20;101823.47;5055736;28;20029;-45
2022/07/13 05:00:49;;;;;;;9.45;5.75;;;;;;;21.25;58.20;101812.09;5056576;28;20029;-44
2022/07/13 05:03:14;;;;;;;14.05;6.60;;;;;;;21.26;57.79;101810.34;5056447;28;20381;-46
2022/07/13 05:05:40;;;;;;;15.85;7.07;;;;;;;21.26;57.75;101815.59;5055665;28;20032;-47
2022/07/13 05:08:05;;;;;;;13.68;6.18;;;;;;;21.28;58.44;101809.50;5056057;28;20122;-48
2022/07/13 05:10:31;;;;;;;12.32;6.05;;;;;;;21.29;58.53;101802.47;5055454;28;20056;-45
2022/07/13 05:12:56;;;;;;;13.73;6.70;;;;;;;21.30;58.14;101802.47;5056431;28;20372;-46
2022/07/13 05:15:22;;;;;;;11.38;6.57;;;;;;;21.31;58.38;101803.38;5056103;28;20036;-47
2022/07/13 05:17:48;;;;;;;10.18;5.60;;;;;;;21.32;57.67;101803.38;5055340;28;20020;-47
2022/07/13 05:20:13;;;;;;;14.10;5.50;;;;;;;21.38;58.05;101800.75;5056080;28;20025;-45
2022/07/13 05:22:38;;;;;;;15.93;7.25;;;;;;;21.43;57.74;101802.50;5056117;28;20033;-48
2022/07/13 05:25:04;;;;;;;11.80;5.57;;;;;;;21.44;57.68;101806.88;5054911;28;20031;-48
2022/07/13 05:27:30;;;;;;;16.10;5.85;;;;;;;21.43;57.71;101802.50;5056298;28;20423;-46
2022/07/13 05:29:55;;;;;;;9.55;5.05;;;;;;;21.46;58.48;101802.47;5056055;28;20524;-48
2022/07/13 05:32:20;;;;;;;11.10;5.75;;;;;;;21.50;57.64;101805.09;5055313;28;20025;-45
2022/07/13 05:34:46;;;;;;;16.85;5.93;;;;;;;21.50;57.71;101804.25;5055852;28;20159;-46
2022/07/13 05:37:11;;;;;;;10.32;5.28;;;;;;;21.51;57.95;101816.47;5055877;28;20472;-47
2022/07/13 05:39:36;;;;;;;11.82;5.22;;;;;;;21.53;58.25;101812.09;5054788;28;20049;-47
2022/07/13 05:42:02;;;;;;;11.77;5.70;;;;;;;21.64;58.23;101820.88;5055934;28;20029;-46
2022/07/13 05:44:28;;;;;;;11.00;5.60;;;;;;;21.64;58.10;101823.50;5055764;28;20031;-47
2022/07/13 05:46:54;;;;;;;17.35;5.65;;;;;;;21.67;57.82;101825.25;5055101;28;20107;-47
2022/07/13 05:49:22;;;;;;;15.52;5.70;;;;;;;21.59;57.85;101820.00;5055609;28;20033;-47
2022/07/13 05:51:48;;;;;;;12.27;5.50;;;;;;;21.52;58.81;101826.09;5055547;28;20031;-45
2022/07/13 05:54:13;;;;;;;13.30;5.88;;;;;;;21.45;58.74;101833.09;5054580;28;20092;-48
2022/07/13 05:56:39;;;;;;;11.30;6.47;;;;;;;21.40;59.23;101829.59;5055469;28;20029;-48
2022/07/13 05:59:05;;;;;;;10.03;6.00;;;;;;;21.43;58.31;101839.19;5055272;28;20678;-48
2022/07/13 06:01:31;;;;;;;12.90;5.70;;;;;;;21.54;58.84;101837.47;5054751;28;20036;-48
2022/07/13 06:03:56;;;;;;;12.45;5.57;;;;;;;21.62;58.77;101837.50;5055389;28;20032;-48
2022/07/13 06:06:21;;;;;;;13.15;5.70;;;;;;;21.73;58.25;101832.22;5054765;28;20029;-48
2022/07/13 06:08:47;;;;;;;12.70;6.47;;;;;;;21.81;58.06;101836.59;5054112;28;20048;-44
2022/07/13 06:11:12;;;;;;;15.80;5.80;;;;;;;21.86;58.65;101831.34;5055407;28;20028;-47
2022/07/13 06:13:37;;;;;;;15.90;5.85;;;;;;;21.91;58.28;101834.84;5055215;28;20025;-46
2022/07/13 06:16:03;;;;;;;17.13;5.70;;;;;;;21.97;58.45;101837.44;5054173;28;20025;-44
2022/07/13 06:18:29;;;;;;;10.63;6.22;;;;;;;22.04;58.90;101833.91;5055113;28;20040;-47
2022/07/13 06:20:54;;;;;;;11.25;5.70;;;;;;;22.10;58.72;101830.41;5054378;28;20029;-46
2022/07/13 06:23:21;;;;;;;15.85;6.03;;;;;;;22.19;58.63;101833.03;5054951;28;20032;-44
2022/07/13 06:25:46;;;;;;;17.05;6.28;;;;;;;22.22;58.64;101836.50;5055193;28;20033;-47
2022/07/13 06:28:12;;;;;;;15.40;6.60;;;;;;;22.29;58.63;101836.47;5054255;28;20035;-44
2022/07/13 06:30:38;;;;;;;12.40;5.97;;;;;;;22.33;58.94;101825.06;5054766;28;20029;-45
2022/07/13 06:33:04;;;;;;;11.88;6.32;;;;;;;22.43;58.25;101830.34;5054656;28;20358;-45
2022/07/13 06:35:31;;;;;;;12.02;6.00;;;;;;;22.43;57.36;101825.94;5054020;28;20021;-44
2022/07/13 06:37:58;;;;;;;16.33;5.70;;;;;;;22.38;58.29;101824.22;5054276;28;20052;-44
2022/07/13 06:40:23;;;;;;;13.93;6.25;;;;;;;22.39;58.13;101818.06;5054305;28;20361;-43
2022/07/13 06:42:49;;;;;;;14.48;6.03;;;;;;;22.45;57.70;101818.06;5053749;28;20070;-45
2022/07/13 06:45:17;;;;;;;11.27;5.85;;;;;;;22.57;58.24;101823.28;5054461;28;20118;-43
2022/07/13 06:47:43;;;;;;;18.23;6.32;;;;;;;22.63;57.58;101820.63;5054485;28;20504;-47
2022/07/13 06:50:09;;;;;;;13.38;6.03;;;;;;;22.71;58.09;101817.94;5053261;28;20056;-44
2022/07/13 06:52:36;;;;;;;10.65;6.10;;;;;;;22.81;57.93;101822.28;5054625;28;20040;-47
2022/07/13 06:55:02;;;;;;;14.48;6.85;;;;;;;22.85;57.65;101812.59;5054515;28;20025;-45
2022/07/13 06:57:27;;;;;;;12.70;6.18;;;;;;;22.87;58.46;101821.34;5053786;28;20029;-44
2022/07/13 06:59:52;;;;;;;18.92;6.68;;;;;;;22.89;57.64;101814.31;5054097;28;20075;-47
2022/07/13 07:02:18;;;;;;;11.27;6.03;;;;;;;22.95;57.98;101830.03;5054103;28;20021;-44
2022/07/13 07:04:43;;;;;;;12.77;6.50;;;;;;;23.06;58.59;101829.09;5053380;28;20076;-48
2022/07/13 07:07:09;;;;;;;10.80;6.15;;;;;;;23.27;58.30;101825.50;5053816;28;20017;-48
2022/07/13 07:09:35;;;;;;;12.80;6.30;;;;;;;23.44;57.26;101830.63;5053901;28;20032;-45
2022/07/13 07:12:00;;;;;;;14.77;8.02;;;;;;;23.59;56.70;101829.59;5053070;28;20361;-46
2022/07/13 07:14:25;;;;;;;16.50;6.95;;;;;;;23.60;58.09;101826.97;5053894;28;20063;-46
2022/07/13 07:16:50;;;;;;;22.20;7.80;;;;;;;23.66;56.28;101834.78;5053921;28;20131;-46
2022/07/13 07:19:16;;;;;;;15.45;7.63;;;;;;;23.64;56.90;101831.31;5051958;28;20116;-47
2022/07/13 07:21:41;;;;;;;15.60;7.22;;;;;;;23.56;57.00;101827.00;5053824;28;20033;-45
2022/07/13 07:24:06;;;;;;;13.32;7.95;;;;;;;23.39;57.69;101832.41;5053142;28;20104;-46
2022/07/13 07:26:32;;;;;;;15.57;7.78;;;;;;;23.32;56.95;101821.06;5054034;28;20035;-46
2022/07/13 07:28:58;;;;;;;20.35;7.80;;;;;;;23.54;57.17;101824.38;5053725;28;20033;-44
2022/07/13 07:31:24;;;;;;;15.68;6.97;;;;;;;23.78;57.45;101822.41;5052855;28;20020;-48
2022/07/13 07:33:50;;;;;;;15.73;7.72;;;;;;;23.89;56.82;101814.41;5053572;28;20096;-46
2022/07/13 07:36:16;;;;;;;18.00;9.25;;;;;;;23.95;56.85;101820.50;5053408;28;20053;-47
2022/07/13 07:38:44;;;;;;;17.30;8.27;;;;;;;23.93;57.17;101817.00;5052804;28;20087;-47
2022/07/13 07:41:12;;;;;;;15.95;7.13;;;;;;;23.97;58.81;101823.97;5053518;28;20029;-45
2022/07/13 07:43:38;;;;;;;17.45;8.45;;;;;;;23.96;57.14;101822.25;5053696;28;20025;-48
2022/07/13 07:46:03;;;;;;;14.73;8.10;;;;;;;24.02;56.64;101815.19;5052441;28;20025;-43
2022/07/13 07:48:29;;;;;;;14.32;7.55;;;;;;;24.31;58.36;101818.34;5053284;28;20029;-46
2022/07/13 07:50:54;;;;;;;18.80;8.63;;;;;;;24.52;55.36;101816.31;5053177;28;20028;-45
2022/07/13 07:53:20;;;;;;;16.92;8.43;;;;;;;24.64;56.10;101818.81;5052287;28;20048;-46
2022/07/13 07:55:46;;;;;;;15.75;8.73;;;;;;;24.67;55.87;101819.66;5053366;28;20074;-44
2022/07/13 07:58:11;;;;;;;19.75;8.77;;;;;;;24.67;55.84;101820.53;5053156;28;20083;-45
2022/07/13 08:00:37;;;;;;;15.02;8.55;;;;;;;24.76;56.22;101822.16;5052366;28;20032;-46
2022/07/13 08:03:03;;;;;;;15.43;8.20;;;;;;;24.73;55.66;101817.81;5052968;28;20078;-42
2022/07/13 08:05:30;;;;;;;28.87;8.10;;;;;;;24.81;56.84;101817.69;5053249;28;20048;-46
2022/07/13 08:07:56;;;;;;;18.02;8.15;;;;;;;24.97;56.02;101826.25;5052441;28;20103;-45
2022/07/13 08:10:21;;;;;;;23.27;7.68;;;;;;;25.15;56.82;101822.44;5053095;28;20058;-46
2022/07/13 08:12:46;;;;;;;15.20;8.10;;;;;;;25.35;55.48;101822.16;5053071;28;20036;-44
2022/07/13 08:15:12;;;;;;;23.92;8.35;;;;;;;25.45;54.88;101822.91;5052225;28;20028;-42
2022/07/13 08:17:39;;;;;;;21.92;8.25;;;;;;;25.46;55.32;101821.97;5052960;28;20032;-43
2022/07/13 08:20:05;;;;;;;18.60;7.05;;;;;;;25.55;55.83;101829.75;5052452;28;20037;-47
2022/07/13 08:22:30;;;;;;;16.13;7.97;;;;;;;25.39;54.96;101823.84;5052193;28;20017;-45
2022/07/13 08:24:55;;;;;;;25.98;8.90;;;;;;;25.52;55.48;101828.94;5052764;28;20156;-45
2022/07/13 08:27:21;;;;;;;15.20;7.90;;;;;;;25.57;54.82;101833.22;5051922;28;20075;-45
2022/07/13 08:29:46;;;;;;;28.65;7.68;;;;;;;25.78;54.82;101833.72;5052416;28;20272;-44
2022/07/13 08:32:12;;;;;;;19.85;7.72;;;;;;;25.80;54.67;101830.16;5052488;28;20078;-46
2022/07/13 08:40:10;;;;;;;15.88;7.30;;;;;;;26.31;53.76;101825.69;5052289;28;20067;-48
2022/07/13 08:42:36;;;;;;;;;;;;;;;26.53;55.42;101826.09;5052081;28;20390;-47
2022/07/13 08:45:03;;;;;;;12.13;6.67;;;;;;;26.77;54.14;101823.84;5052372;28;20003;-48
2022/07/13 08:47:29;;;;;;;16.77;7.10;;;;;;;26.63;53.37;101835.56;5052721;28;20048;-45
2022/07/13 08:49:57;;;;;;;14.83;6.93;;;;;;;26.55;52.56;101828.72;5051569;28;20025;-48
2022/07/13 08:52:25;;;;;;;35.50;7.68;;;;;;;26.59;52.34;101838.31;5052230;28;20025;-47
2022/07/13 08:54:52;;;;;;;13.90;6.75;;;;;;;26.47;51.79;101834.19;5052348;28;20029;-47
2022/07/13 08:57:19;;;;;;;12.05;6.18;;;;;;;26.57;54.08;101834.84;5051319;28;20465;-46
2022/07/13 08:59:45;;;;;;;13.60;7.10;;;;;;;26.90;53.86;101830.59;5052595;28;20033;-46
2022/07/13 09:02:10;;;;;;;16.98;7.45;;;;;;;27.01;51.92;101829.47;5052424;28;20021;-48
2022/07/13 09:04:36;;;;;;;14.00;6.20;;;;;;;27.08;51.73;101839.88;5051759;28;20568;-46
2022/07/13 09:07:01;;;;;;;17.15;6.15;;;;;;;27.28;51.61;101841.16;5052243;28;20037;-47
2022/07/13 09:09:35;;;;;;;13.52;6.75;;;;;;;27.45;50.81;101840.78;5052239;28;20033;-48
2022/07/13 09:12:16;;;;;;;17.98;7.07;;;;;;;27.43;50.09;101834.66;5052199;28;20029;-48
2022/07/13 09:14:53;;;;;;;16.67;6.65;;;;;;;27.45;50.21;101843.44;5052341;28;20025;-49
2022/07/13 09:17:44;;;;;;;12.00;5.50;;;;;;;27.91;50.94;101847.50;5051501;28;20020;-47
2022/07/13 09:20:09;;;;;;;14.55;5.90;;;;;;;27.89;48.73;101846.69;5050962;28;20037;-48
2022/07/13 09:22:45;;;;;;;13.57;5.63;;;;;;;27.59;48.64;101838.66;5052618;28;20104;-48
2022/07/13 09:25:14;;;;;;;13.45;5.07;;;;;;;27.59;49.69;101854.53;5051545;28;20025;-46
2022/07/13 09:27:47;;;;;;;14.52;4.68;;;;;;;27.52;48.76;101847.66;5052391;28;20018;-48
2022/07/13 09:30:23;;;;;;;8.60;4.80;;;;;;;27.76;46.96;101851.44;5052182;28;20086;-47
2022/07/13 09:32:49;;;;;;;9.07;5.13;;;;;;;27.79;46.48;101852.28;5051283;28;20017;-48
2022/07/13 09:35:15;;;;;;;14.13;5.35;;;;;;;27.83;46.24;101857.44;5052057;28;20091;-47
2022/07/13 09:37:41;;;;;;;10.55;4.90;;;;;;;27.95;45.16;101850.94;5051424;28;20025;-48
2022/07/13 09:40:09;;;;;;;13.40;5.15;;;;;;;27.82;45.54;101849.53;5051717;28;20044;-48
2022/07/13 09:42:36;;;;;;;10.65;4.93;;;;;;;27.66;45.45;101854.38;5053295;28;20381;-49
2022/07/13 09:47:53;;;;;;;12.27;4.97;;;;;;;27.53;46.09;101859.97;5055603;28;20036;-48
2022/07/13 09:50:18;;;;;;;12.18;4.75;;;;;;;27.52;47.09;101860.88;5055388;28;20070;-47
2022/07/13 09:52:47;;;;;;;10.50;4.50;;;;;;;27.50;47.64;101857.41;5054715;28;20486;-47
2022/07/13 09:55:18;;;;;;;10.43;5.25;;;;;;;27.37;47.13;101853.28;5055256;28;20040;-49
2022/07/13 09:57:52;;;;;;;10.20;4.63;;;;;;;27.32;47.37;101855.19;5055126;28;20495;-49
2022/07/13 10:00:19;;;;;;;12.07;5.00;;;;;;;27.31;48.74;101853.44;5054163;28;20480;-48
2022/07/13 10:02:46;;;;;;;11.32;5.07;;;;;;;27.21;49.32;101856.31;5055435;28;20039;-47
2022/07/13 10:05:14;;;;;;;10.52;4.93;;;;;;;27.75;47.15;101856.78;5054879;28;20479;-48
2022/07/13 10:07:39;;;;;;;11.18;5.15;;;;;;;28.15;46.11;101858.38;5054375;28;20022;-48
2022/07/13 10:10:06;;;;;;;11.07;4.85;;;;;;;28.60;46.02;101872.97;5054887;28;20561;-48
2022/07/13 10:12:36;;;;;;;9.93;5.40;;;;;;;28.46;44.37;101862.78;5055060;28;20039;-49
2022/07/13 10:15:01;;;;;;;10.45;4.90;;;;;;;28.56;44.18;101864.25;5053938;28;20024;-46
2022/07/13 10:17:27;;;;;;;10.18;5.10;;;;;;;28.99;45.18;101862.06;5055015;28;20036;-48
2022/07/13 10:19:55;;;;;;;8.63;4.47;;;;;;;29.19;44.72;101853.47;5053979;28;20102;-48
2022/07/13 10:22:26;;;;;;;12.27;4.97;;;;;;;29.50;43.29;101868.41;5054676;28;20025;-49
2022/07/13 10:24:57;;;;;;;8.55;4.53;;;;;;;29.67;44.67;101859.88;5054592;28;20033;-45
2022/07/13 10:27:27;;;;;;;10.45;4.30;;;;;;;29.53;43.68;101860.34;5053928;28;20049;-47
2022/07/13 10:30:06;;;;;;;9.05;4.28;;;;;;;29.33;42.69;101862.78;5054666;28;20060;-49
2022/07/13 10:32:40;;;;;;;10.80;4.50;;;;;;;28.99;41.65;101877.13;5054701;28;20044;-47
2022/07/13 10:35:09;;;;;;;13.25;4.57;;;;;;;28.94;42.55;101879.06;5053639;28;20029;-50
2022/07/13 10:37:56;;;;;;;7.43;3.88;;;;;;;28.90;42.50;101878.28;5054644;28;20022;-49
2022/07/13 10:40:23;;;;;;;10.77;4.10;;;;;;;28.74;44.35;101880.53;5054361;28;20139;-47
2022/07/13 10:42:57;;;;;;;6.50;3.80;;;;;;;29.37;43.74;101877.69;5053497;28;20524;-48
2022/07/13 10:45:31;;;;;;;11.70;4.40;;;;;;;29.89;40.76;101875.94;5054191;28;20047;-47
2022/07/13 10:47:56;;;;;;;7.13;4.00;;;;;;;29.63;40.39;101873.28;5053894;28;20116;-45
2022/07/13 10:50:22;;;;;;;10.23;4.00;;;;;;;29.27;41.72;101877.16;5053995;28;20113;-47
2022/07/13 10:52:48;;;;;;;8.95;4.70;;;;;;;28.81;42.43;101871.47;5053849;28;20017;-49
2022/07/13 10:55:13;;;;;;;13.32;4.80;;;;;;;28.37;42.93;101873.66;5053235;28;20067;-47
2022/07/13 10:57:42;;;;;;;9.07;4.60;;;;;;;28.06;43.73;101879.81;5054146;28;20472;-49
2022/07/13 11:00:25;;;;;;;10.63;4.25;;;;;;;27.98;43.91;101879.13;5053647;28;20063;-48
2022/07/13 11:03:01;;;;;;;9.75;4.28;;;;;;;28.51;43.73;101882.06;5053077;28;20029;-49
2022/07/13 11:05:34;;;;;;;12.10;4.50;;;;;;;28.84;41.64;101879.34;5053885;28;20108;-47
2022/07/13 11:08:14;;;;;;;8.43;4.13;;;;;;;29.21;41.65;101878.16;5053913;28;20427;-49
2022/07/13 11:10:39;;;;;;;16.67;3.97;;;;;;;29.16;41.17;101890.72;5053042;28;20486;-46
2022/07/13 11:13:14;;;;;;;9.27;3.88;;;;;;;29.12;41.47;101891.75;5053676;28;20043;-48
2022/07/13 11:15:52;;;;;;;9.10;3.85;;;;;;;29.47;40.65;101879.13;5054051;28;20017;-47
2022/07/13 11:18:20;;;;;;;9.10;3.55;;;;;;;29.73;39.85;101880.03;5052861;28;20033;-47
2022/07/13 11:20:55;;;;;;;8.25;3.70;;;;;;;30.53;38.92;101885.16;5053395;28;20058;-46
2022/07/13 11:26:42;;;;;;;11.02;3.53;;;;;;;31.11;36.99;101878.50;5045081;28;20043;-48